createdAt,value
2016-06-12T00:00:08.183Z,0
2016-06-12T00:01:08.139Z,0
2016-06-12T00:02:08.173Z,0
2016-06-12T00:03:08.114Z,0
2016-06-12T00:04:08.132Z,0
2016-06-12T00:05:08.682Z,0
2016-06-12T00:06:08.154Z,0
2016-06-12T00:07:08.095Z,0
2016-06-12T00:08:08.083Z,0
2016-06-12T00:09:08.064Z,0
2016-06-12T00:10:08.106Z,0
2016-06-12T00:11:08.147Z,0
2016-06-12T00:12:08.203Z,0
2016-06-12T00:13:08.041Z,0
2016-06-12T00:14:08.223Z,0
2016-06-12T00:15:08.207Z,0
2016-06-12T00:16:08.194Z,0
2016-06-12T00:17:08.226Z,0
2016-06-12T00:18:08.196Z,0
2016-06-12T00:19:08.191Z,0
2016-06-12T00:20:08.387Z,0
2016-06-12T00:21:08.160Z,0
2016-06-12T00:22:08.184Z,0
2016-06-12T00:23:08.161Z,0
2016-06-12T00:24:08.167Z,0
2016-06-12T00:25:08.172Z,0
2016-06-12T00:26:08.145Z,0
2016-06-12T00:27:08.119Z,0
2016-06-12T00:28:08.124Z,0
2016-06-12T00:29:07.988Z,0
2016-06-12T00:30:08.101Z,0
2016-06-12T00:31:08.073Z,0
2016-06-12T00:32:08.077Z,0
2016-06-12T00:33:08.064Z,0
2016-06-12T00:34:08.052Z,0
2016-06-12T00:35:08.071Z,0
2016-06-12T00:36:08.012Z,0
2016-06-12T00:37:08.141Z,0
2016-06-12T00:38:08.003Z,0
2016-06-12T00:39:08.006Z,0
2016-06-12T00:40:07.963Z,0
2016-06-12T00:41:07.965Z,0
2016-06-12T00:42:07.813Z,0
2016-06-12T00:43:07.955Z,0
2016-06-12T00:44:07.944Z,0
2016-06-12T00:45:07.978Z,0
2016-06-12T00:46:07.919Z,0
2016-06-12T00:47:07.922Z,0
2016-06-12T00:48:07.893Z,0
2016-06-12T00:49:07.896Z,0
2016-06-12T00:50:07.900Z,0
2016-06-12T00:51:07.840Z,0
2016-06-12T00:52:07.844Z,0
2016-06-12T00:53:07.846Z,0
2016-06-12T00:54:07.803Z,0
2016-06-12T00:55:07.806Z,0
2016-06-12T00:56:07.792Z,0
2016-06-12T00:57:07.765Z,0
2016-06-12T00:58:07.752Z,0
2016-06-12T00:59:07.584Z,0
2016-06-12T01:00:07.571Z,0
2016-06-12T01:01:07.808Z,0
2016-06-12T01:02:07.702Z,0
2016-06-12T01:03:07.767Z,0
2016-06-12T01:04:07.709Z,0
2016-06-12T01:05:08.070Z,0
2016-06-12T01:06:08.276Z,0
2016-06-12T01:07:07.686Z,0
2016-06-12T01:08:07.627Z,0
2016-06-12T01:09:07.629Z,0
2016-06-12T01:10:07.633Z,0
2016-06-12T01:11:07.433Z,0
2016-06-12T01:12:07.419Z,0
2016-06-12T01:13:07.627Z,0
2016-06-12T01:14:07.395Z,0
2016-06-12T01:15:07.476Z,0
2016-06-12T01:16:07.558Z,0
2016-06-12T01:17:07.389Z,0
2016-06-12T01:18:07.533Z,0
2016-06-12T01:19:07.504Z,0
2016-06-12T01:20:08.163Z,0
2016-06-12T01:21:08.072Z,0
2016-06-12T01:22:07.466Z,0
2016-06-12T01:23:07.454Z,0
2016-06-12T01:24:07.457Z,0
2016-06-12T01:25:07.414Z,0
2016-06-12T01:26:07.448Z,0
2016-06-12T01:27:07.404Z,0
2016-06-12T01:28:07.407Z,0
2016-06-12T01:29:07.410Z,0
2016-06-12T01:30:07.366Z,0
2016-06-12T01:31:07.354Z,0
2016-06-12T01:32:07.341Z,0
2016-06-12T01:33:07.344Z,0
2016-06-12T01:34:07.317Z,0
2016-06-12T01:35:07.429Z,0
2016-06-12T01:36:07.651Z,0
2016-06-12T01:37:07.122Z,0
2016-06-12T01:38:07.297Z,0
2016-06-12T01:39:07.253Z,0
2016-06-12T01:40:07.116Z,0
2016-06-12T01:41:07.245Z,0
2016-06-12T01:42:07.075Z,0
2016-06-12T01:43:07.187Z,0
2016-06-12T01:44:07.190Z,0
2016-06-12T01:45:07.179Z,0
2016-06-12T01:46:07.166Z,0
2016-06-12T01:47:07.137Z,0
2016-06-12T01:48:07.203Z,0
2016-06-12T01:49:07.128Z,0
2016-06-12T01:50:07.178Z,0
2016-06-12T01:51:06.978Z,0
2016-06-12T01:52:07.137Z,0
2016-06-12T01:53:07.078Z,0
2016-06-12T01:54:07.081Z,0
2016-06-12T01:55:07.053Z,0
2016-06-12T01:56:07.102Z,0
2016-06-12T01:57:07.027Z,0
2016-06-12T01:58:07.062Z,0
2016-06-12T01:59:07.002Z,0
2016-06-12T02:00:07.053Z,0
2016-06-12T02:01:06.821Z,0
2016-06-12T02:02:06.809Z,0
2016-06-12T02:03:06.921Z,0
2016-06-12T02:04:06.971Z,0
2016-06-12T02:05:06.927Z,0
2016-06-12T02:06:08.336Z,0
2016-06-12T02:07:06.902Z,0
2016-06-12T02:08:06.983Z,0
2016-06-12T02:09:06.721Z,0
2016-06-12T02:10:06.928Z,0
2016-06-12T02:11:06.837Z,0
2016-06-12T02:12:06.855Z,0
2016-06-12T02:13:06.843Z,0
2016-06-12T02:14:06.674Z,0
2016-06-12T02:15:06.786Z,0
2016-06-12T02:16:06.821Z,0
2016-06-12T02:17:06.777Z,0
2016-06-12T02:18:06.811Z,0
2016-06-12T02:19:06.736Z,0
2016-06-12T02:20:07.442Z,0
2016-06-12T02:21:08.289Z,0
2016-06-12T02:22:06.824Z,0
2016-06-12T02:23:06.763Z,0
2016-06-12T02:24:06.782Z,0
2016-06-12T02:25:06.676Z,0
2016-06-12T02:26:06.727Z,0
2016-06-12T02:27:06.651Z,0
2016-06-12T02:28:06.638Z,0
2016-06-12T02:29:06.470Z,0
2016-06-12T02:30:06.645Z,0
2016-06-12T02:31:06.617Z,0
2016-06-12T02:32:06.651Z,0
2016-06-12T02:33:06.592Z,0
2016-06-12T02:34:06.641Z,0
2016-06-12T02:35:06.925Z,0
2016-06-12T02:36:07.085Z,0
2016-06-12T02:37:06.525Z,0
2016-06-12T02:38:06.482Z,0
2016-06-12T02:39:06.501Z,0
2016-06-12T02:40:06.551Z,0
2016-06-12T02:41:06.459Z,0
2016-06-12T02:42:06.463Z,0
2016-06-12T02:43:06.450Z,0
2016-06-12T02:44:06.438Z,0
2016-06-12T02:45:06.410Z,0
2016-06-12T02:46:06.428Z,0
2016-06-12T02:47:06.416Z,0
2016-06-12T02:48:06.403Z,0
2016-06-12T02:49:06.359Z,0
2016-06-12T02:50:06.581Z,0
2016-06-12T02:51:07.568Z,0
2016-06-12T02:52:06.338Z,0
2016-06-12T02:53:06.340Z,0
2016-06-12T02:54:06.280Z,0
2016-06-12T02:55:06.284Z,0
2016-06-12T02:56:06.272Z,0
2016-06-12T02:57:06.274Z,0
2016-06-12T02:58:06.246Z,0
2016-06-12T02:59:06.234Z,0
2016-06-12T03:00:06.237Z,0
2016-06-12T03:01:06.209Z,0
2016-06-12T03:02:06.212Z,0
2016-06-12T03:03:06.199Z,0
2016-06-12T03:04:06.186Z,0
2016-06-12T03:05:06.659Z,0
2016-06-12T03:06:06.302Z,0
2016-06-12T03:07:05.992Z,0
2016-06-12T03:08:06.137Z,0
2016-06-12T03:09:06.109Z,0
2016-06-12T03:10:06.111Z,0
2016-06-12T03:11:05.927Z,0
2016-06-12T03:12:05.946Z,0
2016-06-12T03:13:06.074Z,0
2016-06-12T03:14:06.045Z,0
2016-06-12T03:15:06.033Z,0
2016-06-12T03:16:06.021Z,0
2016-06-12T03:17:06.133Z,0
2016-06-12T03:18:05.995Z,0
2016-06-12T03:19:06.029Z,0
2016-06-12T03:20:05.985Z,0
2016-06-12T03:21:05.833Z,0
2016-06-12T03:22:05.944Z,0
2016-06-12T03:23:05.947Z,0
2016-06-12T03:24:05.936Z,0
2016-06-12T03:25:05.908Z,0
2016-06-12T03:26:05.911Z,0
2016-06-12T03:27:05.914Z,0
2016-06-12T03:28:05.854Z,0
2016-06-12T03:29:05.888Z,0
2016-06-12T03:30:05.845Z,0
2016-06-12T03:31:05.832Z,0
2016-06-12T03:32:05.819Z,0
2016-06-12T03:33:05.823Z,0
2016-06-12T03:34:05.467Z,0
2016-06-12T03:35:05.845Z,5
2016-06-12T03:36:06.597Z,5
2016-06-12T03:37:05.820Z,5
2016-06-12T03:38:05.760Z,5
2016-06-12T03:39:05.779Z,5
2016-06-12T03:40:05.704Z,5
2016-06-12T03:41:05.707Z,5
2016-06-12T03:42:05.679Z,5
2016-06-12T03:43:05.759Z,5
2016-06-12T03:44:05.684Z,5
2016-06-12T03:45:05.765Z,5
2016-06-12T03:46:05.675Z,5
2016-06-12T03:47:05.647Z,5
2016-06-12T03:48:05.635Z,5
2016-06-12T03:49:05.606Z,5
2016-06-12T03:50:05.578Z,5
2016-06-12T03:51:05.784Z,5
2016-06-12T03:52:05.584Z,5
2016-06-12T03:53:05.525Z,5
2016-06-12T03:54:05.528Z,5
2016-06-12T03:55:05.563Z,5
2016-06-12T03:56:05.503Z,5
2016-06-12T03:57:05.474Z,5
2016-06-12T03:58:05.493Z,5
2016-06-12T03:59:05.543Z,5
2016-06-12T04:00:05.453Z,5
2016-06-12T04:01:05.472Z,10
2016-06-12T04:02:05.442Z,10
2016-06-12T04:03:05.242Z,10
2016-06-12T04:04:05.387Z,10
2016-06-12T04:05:05.406Z,10
2016-06-12T04:06:06.502Z,10
2016-06-12T04:07:05.380Z,10
2016-06-12T04:08:05.180Z,10
2016-06-12T04:09:05.371Z,10
2016-06-12T04:10:05.342Z,15
2016-06-12T04:11:05.314Z,15
2016-06-12T04:12:05.302Z,15
2016-06-12T04:13:05.289Z,15
2016-06-12T04:14:05.277Z,15
2016-06-12T04:15:05.279Z,15
2016-06-12T04:16:05.252Z,15
2016-06-12T04:17:05.224Z,20
2016-06-12T04:18:05.227Z,20
2016-06-12T04:19:05.213Z,20
2016-06-12T04:20:05.202Z,20
2016-06-12T04:21:06.470Z,20
2016-06-12T04:22:05.051Z,20
2016-06-12T04:23:05.164Z,20
2016-06-12T04:24:05.151Z,20
2016-06-12T04:25:05.186Z,20
2016-06-12T04:26:05.126Z,20
2016-06-12T04:27:05.129Z,20
2016-06-12T04:28:05.179Z,20
2016-06-12T04:29:05.073Z,25
2016-06-12T04:30:04.670Z,25
2016-06-12T04:31:05.079Z,25
2016-06-12T04:32:04.878Z,25
2016-06-12T04:33:05.038Z,25
2016-06-12T04:34:04.916Z,30
2016-06-12T04:35:05.013Z,30
2016-06-12T04:36:05.251Z,30
2016-06-12T04:37:04.972Z,30
2016-06-12T04:38:04.976Z,30
2016-06-12T04:39:04.963Z,30
2016-06-12T04:40:04.966Z,30
2016-06-12T04:41:04.938Z,35
2016-06-12T04:42:04.957Z,35
2016-06-12T04:43:04.929Z,35
2016-06-12T04:44:04.885Z,35
2016-06-12T04:45:04.888Z,35
2016-06-12T04:46:04.969Z,35
2016-06-12T04:47:04.863Z,35
2016-06-12T04:48:04.866Z,35
2016-06-12T04:49:04.837Z,35
2016-06-12T04:50:04.903Z,40
2016-06-12T04:51:05.078Z,40
2016-06-12T04:52:05.207Z,40
2016-06-12T04:53:04.771Z,40
2016-06-12T04:54:04.774Z,40
2016-06-12T04:55:04.763Z,40
2016-06-12T04:56:04.750Z,40
2016-06-12T04:57:04.736Z,40
2016-06-12T04:58:04.740Z,40
2016-06-12T04:59:04.697Z,40
2016-06-12T05:00:04.746Z,40
2016-06-12T05:01:04.671Z,40
2016-06-12T05:02:04.518Z,40
2016-06-12T05:03:04.646Z,40
2016-06-12T05:04:04.649Z,40
2016-06-12T05:05:04.621Z,40
2016-06-12T05:06:04.359Z,40
2016-06-12T05:07:04.425Z,40
2016-06-12T05:08:04.583Z,45
2016-06-12T05:09:04.586Z,45
2016-06-12T05:10:04.434Z,45
2016-06-12T05:11:04.577Z,50
2016-06-12T05:12:04.548Z,50
2016-06-12T05:13:04.536Z,50
2016-06-12T05:14:04.571Z,55
2016-06-12T05:15:04.527Z,55
2016-06-12T05:16:04.499Z,60
2016-06-12T05:17:04.330Z,60
2016-06-12T05:18:04.489Z,60
2016-06-12T05:19:04.462Z,65
2016-06-12T05:20:04.448Z,65
2016-06-12T05:21:04.451Z,70
2016-06-12T05:22:04.611Z,70
2016-06-12T05:23:04.411Z,70
2016-06-12T05:24:04.398Z,70
2016-06-12T05:25:04.386Z,75
2016-06-12T05:26:04.232Z,75
2016-06-12T05:27:04.345Z,80
2016-06-12T05:28:04.348Z,80
2016-06-12T05:29:04.320Z,80
2016-06-12T05:30:04.182Z,80
2016-06-12T05:31:04.311Z,80
2016-06-12T05:32:04.298Z,80
2016-06-12T05:33:04.317Z,85
2016-06-12T05:34:04.257Z,85
2016-06-12T05:35:04.261Z,90
2016-06-12T05:36:05.185Z,90
2016-06-12T05:37:04.064Z,90
2016-06-12T05:38:04.238Z,90
2016-06-12T05:39:04.038Z,90
2016-06-12T05:40:04.198Z,90
2016-06-12T05:41:04.044Z,90
2016-06-12T05:42:04.188Z,90
2016-06-12T05:43:04.175Z,90
2016-06-12T05:44:04.178Z,90
2016-06-12T05:45:04.166Z,90
2016-06-12T05:46:03.981Z,90
2016-06-12T05:47:04.125Z,90
2016-06-12T05:48:04.097Z,90
2016-06-12T05:49:04.428Z,90
2016-06-12T05:50:04.103Z,90
2016-06-12T05:51:04.091Z,90
2016-06-12T05:52:05.500Z,90
2016-06-12T05:53:03.894Z,90
2016-06-12T05:54:04.037Z,90
2016-06-12T05:55:04.103Z,85
2016-06-12T05:56:03.997Z,90
2016-06-12T05:57:03.984Z,90
2016-06-12T05:58:04.004Z,90
2016-06-12T05:59:03.959Z,90
2016-06-12T06:00:03.962Z,90
2016-06-12T06:01:03.966Z,90
2016-06-12T06:02:03.936Z,90
2016-06-12T06:03:03.925Z,90
2016-06-12T06:04:03.896Z,90
2016-06-12T06:05:03.962Z,90
2016-06-12T06:06:03.761Z,90
2016-06-12T06:07:04.531Z,90
2016-06-12T06:08:03.862Z,95
2016-06-12T06:09:03.912Z,95
2016-06-12T06:10:03.852Z,95
2016-06-12T06:11:03.871Z,95
2016-06-12T06:12:03.811Z,95
2016-06-12T06:13:03.814Z,100
2016-06-12T06:14:03.786Z,100
2016-06-12T06:15:03.790Z,105
2016-06-12T06:16:03.792Z,105
2016-06-12T06:17:03.764Z,105
2016-06-12T06:18:03.768Z,110
2016-06-12T06:19:03.755Z,115
2016-06-12T06:20:03.727Z,115
2016-06-12T06:21:04.698Z,120
2016-06-12T06:22:03.561Z,120
2016-06-12T06:23:03.783Z,125
2016-06-12T06:24:03.661Z,125
2016-06-12T06:25:03.711Z,125
2016-06-12T06:26:03.668Z,125
2016-06-12T06:27:03.560Z,130
2016-06-12T06:28:03.626Z,135
2016-06-12T06:29:03.630Z,135
2016-06-12T06:30:03.617Z,140
2016-06-12T06:31:03.605Z,145
2016-06-12T06:32:03.560Z,150
2016-06-12T06:33:03.564Z,155
2016-06-12T06:34:03.567Z,160
2016-06-12T06:35:03.537Z,160
2016-06-12T06:36:03.620Z,165
2016-06-12T06:37:04.498Z,170
2016-06-12T06:38:03.516Z,175
2016-06-12T06:39:03.519Z,180
2016-06-12T06:40:03.508Z,185
2016-06-12T06:41:03.479Z,185
2016-06-12T06:42:03.450Z,190
2016-06-12T06:43:03.454Z,190
2016-06-12T06:44:03.284Z,190
2016-06-12T06:45:03.444Z,195
2016-06-12T06:46:03.432Z,195
2016-06-12T06:47:03.419Z,195
2016-06-12T06:48:03.422Z,200
2016-06-12T06:49:03.393Z,200
2016-06-12T06:50:03.475Z,200
2016-06-12T06:51:03.728Z,205
2016-06-12T06:52:04.231Z,205
2016-06-12T06:53:03.375Z,205
2016-06-12T06:54:03.362Z,205
2016-06-12T06:55:03.396Z,205
2016-06-12T06:56:03.368Z,220
2016-06-12T06:57:03.310Z,225
2016-06-12T06:58:03.328Z,230
2016-06-12T06:59:03.299Z,225
2016-06-12T07:00:03.319Z,225
2016-06-12T07:01:03.275Z,220
2016-06-12T07:02:03.309Z,215
2016-06-12T07:03:03.265Z,210
2016-06-12T07:04:03.299Z,200
2016-06-12T07:05:03.084Z,185
2016-06-12T07:06:03.243Z,175
2016-06-12T07:07:03.184Z,165
2016-06-12T07:08:03.187Z,155
2016-06-12T07:09:03.190Z,150
2016-06-12T07:10:03.208Z,150
2016-06-12T07:11:03.196Z,150
2016-06-12T07:12:03.231Z,150
2016-06-12T07:13:03.171Z,150
2016-06-12T07:14:03.157Z,155
2016-06-12T07:15:03.146Z,155
2016-06-12T07:16:03.133Z,160
2016-06-12T07:17:03.136Z,170
2016-06-12T07:18:03.139Z,175
2016-06-12T07:19:03.095Z,185
2016-06-12T07:20:03.114Z,190
2016-06-12T07:21:03.086Z,195
2016-06-12T07:22:03.432Z,195
2016-06-12T07:23:03.077Z,190
2016-06-12T07:24:03.064Z,190
2016-06-12T07:25:03.098Z,190
2016-06-12T07:26:03.055Z,190
2016-06-12T07:27:02.885Z,200
2016-06-12T07:28:03.029Z,210
2016-06-12T07:29:03.017Z,220
2016-06-12T07:30:03.020Z,225
2016-06-12T07:31:03.023Z,230
2016-06-12T07:32:02.854Z,230
2016-06-12T07:33:02.982Z,225
2016-06-12T07:34:02.985Z,220
2016-06-12T07:35:02.972Z,215
2016-06-12T07:36:02.960Z,215
2016-06-12T07:37:02.822Z,215
2016-06-12T07:38:03.014Z,215
2016-06-12T07:39:02.923Z,220
2016-06-12T07:40:02.926Z,220
2016-06-12T07:41:03.038Z,220
2016-06-12T07:42:02.916Z,220
2016-06-12T07:43:02.919Z,220
2016-06-12T07:44:02.891Z,220
2016-06-12T07:45:02.910Z,225
2016-06-12T07:46:02.866Z,225
2016-06-12T07:47:02.963Z,230
2016-06-12T07:48:02.856Z,235
2016-06-12T07:49:02.875Z,240
2016-06-12T07:50:02.862Z,250
2016-06-12T07:51:02.865Z,255
2016-06-12T07:52:02.853Z,265
2016-06-12T07:53:02.685Z,275
2016-06-12T07:54:02.672Z,275
2016-06-12T07:55:02.816Z,280
2016-06-12T07:56:02.803Z,280
2016-06-12T07:57:02.853Z,280
2016-06-12T07:58:02.809Z,285
2016-06-12T07:59:02.781Z,290
2016-06-12T08:00:02.799Z,295
2016-06-12T08:01:02.787Z,300
2016-06-12T08:02:02.760Z,285
2016-06-12T08:03:02.762Z,285
2016-06-12T08:04:02.750Z,285
2016-06-12T08:05:02.752Z,285
2016-06-12T08:06:02.771Z,290
2016-06-12T08:07:03.306Z,285
2016-06-12T08:08:02.730Z,285
2016-06-12T08:09:02.718Z,280
2016-06-12T08:10:02.705Z,270
2016-06-12T08:11:02.693Z,265
2016-06-12T08:12:02.696Z,260
2016-06-12T08:13:02.683Z,260
2016-06-12T08:14:02.702Z,255
2016-06-12T08:15:02.674Z,255
2016-06-12T08:16:02.661Z,250
2016-06-12T08:17:02.648Z,250
2016-06-12T08:18:02.636Z,255
2016-06-12T08:19:02.655Z,265
2016-06-12T08:20:02.657Z,280
2016-06-12T08:21:02.646Z,295
2016-06-12T08:22:02.946Z,310
2016-06-12T08:23:02.464Z,335
2016-06-12T08:24:02.670Z,355
2016-06-12T08:25:02.595Z,355
2016-06-12T08:26:02.709Z,355
2016-06-12T08:27:02.586Z,360
2016-06-12T08:28:02.620Z,355
2016-06-12T08:29:02.608Z,355
2016-06-12T08:30:02.610Z,350
2016-06-12T08:31:02.567Z,340
2016-06-12T08:32:02.710Z,330
2016-06-12T08:33:02.541Z,330
2016-06-12T08:34:02.576Z,330
2016-06-12T08:35:02.531Z,335
2016-06-12T08:36:02.614Z,335
2016-06-12T08:37:02.507Z,335
2016-06-12T08:38:02.620Z,335
2016-06-12T08:39:02.373Z,345
2016-06-12T08:40:02.547Z,330
2016-06-12T08:41:02.504Z,330
2016-06-12T08:42:02.539Z,330
2016-06-12T08:43:02.479Z,325
2016-06-12T08:44:02.513Z,325
2016-06-12T08:45:02.470Z,330
2016-06-12T08:46:02.487Z,345
2016-06-12T08:47:02.303Z,370
2016-06-12T08:48:02.479Z,370
2016-06-12T08:49:02.482Z,375
2016-06-12T08:50:02.453Z,375
2016-06-12T08:51:02.456Z,365
2016-06-12T08:52:02.756Z,365
2016-06-12T08:53:02.275Z,365
2016-06-12T08:54:02.466Z,365
2016-06-12T08:55:02.469Z,370
2016-06-12T08:56:02.409Z,375
2016-06-12T08:57:02.413Z,370
2016-06-12T08:58:02.432Z,355
2016-06-12T08:59:02.497Z,345
2016-06-12T09:00:02.405Z,330
2016-06-12T09:01:02.487Z,320
2016-06-12T09:02:02.397Z,320
2016-06-12T09:03:02.212Z,325
2016-06-12T09:04:02.387Z,320
2016-06-12T09:05:02.484Z,320
2016-06-12T09:06:02.362Z,320
2016-06-12T09:07:03.521Z,315
2016-06-12T09:08:02.353Z,310
2016-06-12T09:09:02.433Z,305
2016-06-12T09:10:02.375Z,305
2016-06-12T09:11:02.378Z,300
2016-06-12T09:12:02.380Z,295
2016-06-12T09:13:02.320Z,290
2016-06-12T09:14:02.310Z,285
2016-06-12T09:15:02.212Z,290
2016-06-12T09:16:02.381Z,300
2016-06-12T09:17:02.456Z,310
2016-06-12T09:18:02.313Z,325
2016-06-12T09:19:02.543Z,335
2016-06-12T09:20:02.343Z,335
2016-06-12T09:21:02.672Z,345
2016-06-12T09:22:02.409Z,360
2016-06-12T09:23:02.864Z,370
2016-06-12T09:24:02.553Z,395
2016-06-12T09:25:02.577Z,405
2016-06-12T09:26:02.554Z,415
2016-06-12T09:27:02.530Z,400
2016-06-12T09:28:02.586Z,405
2016-06-12T09:29:02.547Z,415
2016-06-12T09:30:02.568Z,400
2016-06-12T09:31:02.541Z,395
2016-06-12T09:32:02.547Z,395
2016-06-12T09:33:02.535Z,390
2016-06-12T09:34:02.540Z,420
2016-06-12T09:35:02.528Z,420
2016-06-12T09:36:02.642Z,425
2016-06-12T09:37:03.052Z,435
2016-06-12T09:38:02.852Z,425
2016-06-12T09:39:02.560Z,420
2016-06-12T09:40:02.501Z,410
2016-06-12T09:41:02.504Z,415
2016-06-12T09:42:02.570Z,435
2016-06-12T09:43:02.495Z,455
2016-06-12T09:44:02.515Z,475
2016-06-12T09:45:02.361Z,440
2016-06-12T09:46:02.489Z,460
2016-06-12T09:47:02.461Z,490
2016-06-12T09:48:02.511Z,505
2016-06-12T09:49:02.326Z,495
2016-06-12T09:50:02.501Z,465
2016-06-12T09:51:02.474Z,405
2016-06-12T09:52:02.882Z,370
2016-06-12T09:53:02.448Z,345
2016-06-12T09:54:02.483Z,350
2016-06-12T09:55:02.455Z,355
2016-06-12T09:56:02.441Z,380
2016-06-12T09:57:02.460Z,405
2016-06-12T09:58:02.448Z,440
2016-06-12T09:59:02.482Z,380
2016-06-12T10:00:02.454Z,370
2016-06-12T10:01:02.426Z,415
2016-06-12T10:02:02.460Z,365
2016-06-12T10:03:02.416Z,445
2016-06-12T10:04:02.435Z,420
2016-06-12T10:05:02.422Z,435
2016-06-12T10:06:02.239Z,480
2016-06-12T10:07:02.991Z,445
2016-06-12T10:08:03.025Z,330
2016-06-12T10:09:02.404Z,300
2016-06-12T10:10:02.079Z,290
2016-06-12T10:11:02.393Z,280
2016-06-12T10:12:02.382Z,280
2016-06-12T10:13:02.510Z,290
2016-06-12T10:14:02.419Z,280
2016-06-12T10:15:02.438Z,280
2016-06-12T10:16:02.425Z,290
2016-06-12T10:17:02.444Z,345
2016-06-12T10:18:02.337Z,340
2016-06-12T10:19:02.513Z,320
2016-06-12T10:20:02.359Z,335
2016-06-12T10:21:02.362Z,325
2016-06-12T10:22:02.319Z,335
2016-06-12T10:23:02.775Z,385
2016-06-12T10:24:02.403Z,325
2016-06-12T10:25:02.437Z,330
2016-06-12T10:26:02.331Z,330
2016-06-12T10:27:02.397Z,390
2016-06-12T10:28:02.321Z,420
2016-06-12T10:29:02.324Z,365
2016-06-12T10:30:02.296Z,295
2016-06-12T10:31:02.316Z,275
2016-06-12T10:32:02.319Z,260
2016-06-12T10:33:02.291Z,255
2016-06-12T10:34:02.277Z,245
2016-06-12T10:35:02.312Z,245
2016-06-12T10:36:02.268Z,235
2016-06-12T10:37:02.256Z,230
2016-06-12T10:38:02.899Z,230
2016-06-12T10:39:02.262Z,230
2016-06-12T10:40:02.265Z,235
2016-06-12T10:41:02.268Z,240
2016-06-12T10:42:02.661Z,270
2016-06-12T10:43:02.305Z,275
2016-06-12T10:44:02.167Z,275
2016-06-12T10:45:02.264Z,275
2016-06-12T10:46:02.283Z,260
2016-06-12T10:47:02.067Z,260
2016-06-12T10:48:02.087Z,260
2016-06-12T10:49:02.230Z,255
2016-06-12T10:50:02.217Z,255
2016-06-12T10:51:02.049Z,250
2016-06-12T10:52:02.052Z,255
2016-06-12T10:53:02.054Z,260
2016-06-12T10:54:02.198Z,270
2016-06-12T10:55:02.014Z,270
2016-06-12T10:56:02.173Z,275
2016-06-12T10:57:02.176Z,280
2016-06-12T10:58:02.321Z,285
2016-06-12T10:59:02.151Z,290
2016-06-12T11:00:01.995Z,295
2016-06-12T11:01:02.138Z,295
2016-06-12T11:02:02.141Z,295
2016-06-12T11:03:02.145Z,300
2016-06-12T11:04:02.133Z,300
2016-06-12T11:05:02.135Z,305
2016-06-12T11:06:02.154Z,310
2016-06-12T11:07:02.110Z,325
2016-06-12T11:08:02.472Z,345
2016-06-12T11:09:01.944Z,355
2016-06-12T11:10:02.010Z,355
2016-06-12T11:11:02.138Z,355
2016-06-12T11:12:02.094Z,355
2016-06-12T11:13:02.081Z,355
2016-06-12T11:14:02.084Z,345
2016-06-12T11:15:02.073Z,330
2016-06-12T11:16:02.107Z,325
2016-06-12T11:17:02.173Z,315
2016-06-12T11:18:02.066Z,310
2016-06-12T11:19:02.068Z,310
2016-06-12T11:20:02.041Z,315
2016-06-12T11:21:02.153Z,315
2016-06-12T11:22:02.047Z,320
2016-06-12T11:23:01.956Z,330
2016-06-12T11:24:02.037Z,340
2016-06-12T11:25:01.931Z,340
2016-06-12T11:26:02.043Z,310
2016-06-12T11:27:02.015Z,360
2016-06-12T11:28:02.049Z,375
2016-06-12T11:29:02.021Z,380
2016-06-12T11:30:02.009Z,380
2016-06-12T11:31:02.074Z,370
2016-06-12T11:32:02.014Z,390
2016-06-12T11:33:02.050Z,395
2016-06-12T11:34:01.990Z,375
2016-06-12T11:35:02.071Z,385
2016-06-12T11:36:01.981Z,405
2016-06-12T11:37:02.030Z,390
2016-06-12T11:38:02.331Z,375
2016-06-12T11:39:01.959Z,265
2016-06-12T11:40:01.962Z,245
2016-06-12T11:41:01.981Z,240
2016-06-12T11:42:01.952Z,255
2016-06-12T11:43:01.970Z,255
2016-06-12T11:44:01.942Z,240
2016-06-12T11:45:01.961Z,255
2016-06-12T11:46:01.793Z,320
2016-06-12T11:47:01.936Z,320
2016-06-12T11:48:01.783Z,310
2016-06-12T11:49:01.614Z,315
2016-06-12T11:50:01.930Z,315
2016-06-12T11:51:01.948Z,320
2016-06-12T11:52:01.967Z,335
2016-06-12T11:53:02.298Z,335
2016-06-12T11:54:01.787Z,270
2016-06-12T11:55:01.898Z,230
2016-06-12T11:56:01.777Z,220
2016-06-12T11:57:01.889Z,205
2016-06-12T11:58:01.923Z,195
2016-06-12T11:59:01.879Z,215
2016-06-12T12:00:01.930Z,205
2016-06-12T12:01:01.886Z,200
2016-06-12T12:02:01.873Z,220
2016-06-12T12:03:01.860Z,205
2016-06-12T12:04:01.723Z,220
2016-06-12T12:05:01.851Z,220
2016-06-12T12:06:01.698Z,210
2016-06-12T12:07:01.872Z,205
2016-06-12T12:08:02.579Z,195
2016-06-12T12:09:01.847Z,190
2016-06-12T12:10:01.835Z,190
2016-06-12T12:11:01.682Z,190
2016-06-12T12:12:01.825Z,190
2016-06-12T12:13:01.828Z,195
2016-06-12T12:14:01.832Z,195
2016-06-12T12:15:01.663Z,195
2016-06-12T12:16:01.838Z,195
2016-06-12T12:17:01.795Z,205
2016-06-12T12:18:01.797Z,215
2016-06-12T12:19:01.800Z,220
2016-06-12T12:20:01.788Z,230
2016-06-12T12:21:01.807Z,275
2016-06-12T12:22:01.794Z,295
2016-06-12T12:23:02.157Z,305
2016-06-12T12:24:01.785Z,260
2016-06-12T12:25:01.787Z,250
2016-06-12T12:26:01.775Z,225
2016-06-12T12:27:01.856Z,210
2016-06-12T12:28:01.733Z,205
2016-06-12T12:29:01.769Z,195
2016-06-12T12:30:01.725Z,190
2016-06-12T12:31:01.790Z,185
2016-06-12T12:32:01.732Z,175
2016-06-12T12:33:01.827Z,170
2016-06-12T12:34:01.753Z,170
2016-06-12T12:35:01.709Z,170
2016-06-12T12:36:01.727Z,140
2016-06-12T12:37:01.714Z,135
2016-06-12T12:38:02.092Z,160
2016-06-12T12:39:01.705Z,150
2016-06-12T12:40:01.678Z,110
2016-06-12T12:41:01.681Z,100
2016-06-12T12:42:01.667Z,90
2016-06-12T12:43:01.671Z,80
2016-06-12T12:44:01.674Z,70
2016-06-12T12:45:01.537Z,65
2016-06-12T12:46:01.664Z,60
2016-06-12T12:47:01.683Z,60
2016-06-12T12:48:01.655Z,55
2016-06-12T12:49:01.642Z,50
2016-06-12T12:50:01.646Z,50
2016-06-12T12:51:01.633Z,45
2016-06-12T12:52:01.621Z,45
2016-06-12T12:53:01.780Z,45
2016-06-12T12:54:01.502Z,40
2016-06-12T12:55:01.614Z,45
2016-06-12T12:56:01.586Z,45
2016-06-12T12:57:01.605Z,45
2016-06-12T12:58:01.670Z,50
2016-06-12T12:59:01.579Z,55
2016-06-12T13:00:01.583Z,60
2016-06-12T13:01:01.585Z,70
2016-06-12T13:02:01.558Z,85
2016-06-12T13:03:01.592Z,90
2016-06-12T13:04:01.626Z,95
2016-06-12T13:05:01.550Z,100
2016-06-12T13:06:01.617Z,115
2016-06-12T13:07:01.556Z,130
2016-06-12T13:08:02.685Z,145
2016-06-12T13:09:01.579Z,170
2016-06-12T13:10:01.566Z,190
2016-06-12T13:11:01.523Z,170
2016-06-12T13:12:01.495Z,185
2016-06-12T13:13:01.357Z,245
2016-06-12T13:14:01.547Z,255
2016-06-12T13:15:01.488Z,255
2016-06-12T13:16:01.459Z,270
2016-06-12T13:17:01.462Z,235
2016-06-12T13:18:01.529Z,225
2016-06-12T13:19:01.719Z,255
2016-06-12T13:20:01.488Z,265
2016-06-12T13:21:01.475Z,270
2016-06-12T13:22:01.463Z,290
2016-06-12T13:23:02.153Z,285
2016-06-12T13:24:01.219Z,285
2016-06-12T13:25:01.442Z,295
2016-06-12T13:26:01.412Z,290
2016-06-12T13:27:01.400Z,250
2016-06-12T13:28:01.404Z,220
2016-06-12T13:29:01.421Z,215
2016-06-12T13:30:01.409Z,230
2016-06-12T13:31:01.381Z,230
2016-06-12T13:32:01.399Z,240
2016-06-12T13:33:01.386Z,175
2016-06-12T13:34:01.406Z,155
2016-06-12T13:35:01.409Z,150
2016-06-12T13:36:01.380Z,140
2016-06-12T13:37:01.384Z,125
2016-06-12T13:38:02.199Z,120
2016-06-12T13:39:02.031Z,110
2016-06-12T13:40:01.378Z,100
2016-06-12T13:41:01.365Z,90
2016-06-12T13:42:01.336Z,85
2016-06-12T13:43:01.402Z,85
2016-06-12T13:44:01.327Z,80
2016-06-12T13:45:01.393Z,70
2016-06-12T13:46:01.349Z,65
2016-06-12T13:47:01.305Z,55
2016-06-12T13:48:01.308Z,50
2016-06-12T13:49:01.295Z,45
2016-06-12T13:50:01.299Z,45
2016-06-12T13:51:01.302Z,40
2016-06-12T13:52:01.275Z,40
2016-06-12T13:53:01.886Z,35
2016-06-12T13:54:01.295Z,30
2016-06-12T13:55:01.284Z,25
2016-06-12T13:56:01.255Z,25
2016-06-12T13:57:01.242Z,20
2016-06-12T13:58:01.246Z,20
2016-06-12T13:59:01.296Z,15
2016-06-12T14:00:01.080Z,15
2016-06-12T14:01:01.223Z,10
2016-06-12T14:02:01.226Z,10
2016-06-12T14:03:01.214Z,10
2016-06-12T14:04:01.201Z,10
2016-06-12T14:05:01.204Z,10
2016-06-12T14:06:01.035Z,15
2016-06-12T14:07:01.195Z,15
2016-06-12T14:08:01.198Z,15
2016-06-12T14:09:00.904Z,20